createdAt,value
2018-08-13T00:00:37.965Z,0
2018-08-13T00:01:59.605Z,0
2018-08-13T00:03:00.996Z,0
2018-08-13T00:04:22.468Z,0
2018-08-13T00:05:23.852Z,0
2018-08-13T00:06:45.333Z,0
2018-08-13T00:07:46.716Z,0
2018-08-13T00:09:08.204Z,0
2018-08-13T00:10:09.589Z,0
2018-08-13T00:11:31.063Z,0
2018-08-13T00:12:32.445Z,0
2018-08-13T00:13:53.925Z,0
2018-08-13T00:14:55.308Z,0
2018-08-13T00:16:16.796Z,0
2018-08-13T00:17:18.180Z,0
2018-08-13T00:18:39.653Z,0
2018-08-13T00:19:41.040Z,0
2018-08-13T00:21:02.509Z,0
2018-08-13T00:22:03.900Z,0
2018-08-13T00:23:25.388Z,0
2018-08-13T00:24:26.772Z,0
2018-08-13T00:25:48.245Z,0
2018-08-13T00:26:49.629Z,0
2018-08-13T00:28:11.101Z,0
2018-08-13T00:29:12.485Z,0
2018-08-13T00:30:33.973Z,0
2018-08-13T00:31:35.357Z,0
2018-08-13T00:32:56.829Z,0
2018-08-13T00:33:58.216Z,0
2018-08-13T00:35:19.685Z,0
2018-08-13T00:36:21.069Z,0
2018-08-13T00:37:42.708Z,0
2018-08-13T00:38:44.093Z,0
2018-08-13T00:40:05.573Z,0
2018-08-13T00:41:06.957Z,0
2018-08-13T00:42:28.433Z,0
2018-08-13T00:43:29.815Z,0
2018-08-13T00:44:51.301Z,0
2018-08-13T00:45:52.685Z,0
2018-08-13T00:47:14.157Z,0
2018-08-13T00:48:15.541Z,0
2018-08-13T00:49:37.013Z,0
2018-08-13T00:50:38.397Z,0
2018-08-13T00:51:59.885Z,0
2018-08-13T00:53:01.269Z,0
2018-08-13T00:54:22.741Z,0
2018-08-13T00:55:24.125Z,0
2018-08-13T00:56:45.605Z,0
2018-08-13T00:57:46.990Z,0
2018-08-13T00:59:08.630Z,0
2018-08-13T01:00:10.022Z,0
2018-08-13T01:01:31.494Z,0
2018-08-13T01:02:32.878Z,0
2018-08-13T01:03:54.349Z,0
2018-08-13T01:04:55.741Z,0
2018-08-13T01:06:17.229Z,0
2018-08-13T01:07:18.613Z,0
2018-08-13T01:08:40.086Z,0
2018-08-13T01:09:41.469Z,0
2018-08-13T01:11:02.950Z,0
2018-08-13T01:12:04.334Z,0
2018-08-13T01:13:25.822Z,0
2018-08-13T01:14:27.206Z,0
2018-08-13T01:15:48.678Z,0
2018-08-13T01:16:50.070Z,0
2018-08-13T01:18:11.542Z,0
2018-08-13T01:19:12.926Z,0
2018-08-13T01:20:34.568Z,0
2018-08-13T01:21:35.958Z,0
2018-08-13T01:22:57.430Z,0
2018-08-13T01:23:58.815Z,0
2018-08-13T01:25:20.289Z,0
2018-08-13T01:26:21.670Z,0
2018-08-13T01:27:43.159Z,0
2018-08-13T01:28:44.544Z,0
2018-08-13T01:30:06.015Z,0
2018-08-13T01:31:07.399Z,0
2018-08-13T01:32:28.871Z,0
2018-08-13T01:33:30.263Z,0
2018-08-13T01:34:51.751Z,0
2018-08-13T01:35:53.138Z,0
2018-08-13T01:37:14.607Z,0
2018-08-13T01:38:15.991Z,0
2018-08-13T01:39:37.471Z,0
2018-08-13T01:40:38.857Z,0
2018-08-13T01:42:00.343Z,0
2018-08-13T01:43:01.728Z,0
2018-08-13T01:44:23.199Z,0
2018-08-13T01:45:24.583Z,0
2018-08-13T01:46:46.055Z,0
2018-08-13T01:47:47.439Z,0
2018-08-13T01:49:08.927Z,0
2018-08-13T01:50:10.311Z,0
2018-08-13T01:51:31.783Z,0
2018-08-13T01:52:33.175Z,0
2018-08-13T01:53:54.647Z,0
2018-08-13T01:54:56.031Z,0
2018-08-13T01:56:17.519Z,0
2018-08-13T01:57:18.903Z,0
2018-08-13T01:58:40.376Z,0
2018-08-13T01:59:41.759Z,0
2018-08-13T02:01:03.240Z,0
2018-08-13T02:02:04.623Z,0
2018-08-13T02:03:26.112Z,0
2018-08-13T02:04:27.496Z,0
2018-08-13T02:05:48.967Z,0
2018-08-13T02:06:50.351Z,0
2018-08-13T02:08:11.832Z,0
2018-08-13T02:09:13.215Z,0
2018-08-13T02:10:34.703Z,0
2018-08-13T02:11:36.088Z,0
2018-08-13T02:12:57.559Z,0
2018-08-13T02:13:58.943Z,0
2018-08-13T02:15:20.416Z,0
2018-08-13T02:16:21.802Z,0
2018-08-13T02:17:43.439Z,0
2018-08-13T02:18:44.831Z,0
2018-08-13T02:20:06.306Z,0
2018-08-13T02:21:07.688Z,0
2018-08-13T02:22:29.159Z,0
2018-08-13T02:23:30.544Z,0
2018-08-13T02:24:52.036Z,0
2018-08-13T02:25:53.415Z,0
2018-08-13T02:27:14.887Z,0
2018-08-13T02:28:16.279Z,0
2018-08-13T02:29:37.752Z,0
2018-08-13T02:30:39.144Z,0
2018-08-13T02:32:00.786Z,0
2018-08-13T02:33:02.176Z,0
2018-08-13T02:34:23.648Z,0
2018-08-13T02:35:25.048Z,0
2018-08-13T02:36:46.509Z,0
2018-08-13T02:37:47.896Z,0
2018-08-13T02:39:09.484Z,0
2018-08-13T02:40:10.849Z,0
2018-08-13T02:41:32.320Z,0
2018-08-13T02:42:33.705Z,0
2018-08-13T02:43:55.177Z,0
2018-08-13T02:44:56.560Z,0
2018-08-13T02:46:18.049Z,0
2018-08-13T02:47:19.433Z,0
2018-08-13T02:48:40.905Z,0
2018-08-13T02:49:42.298Z,0
2018-08-13T02:51:03.768Z,0
2018-08-13T02:52:05.153Z,0
2018-08-13T02:53:26.792Z,0
2018-08-13T02:54:28.177Z,0
2018-08-13T02:55:49.649Z,0
2018-08-13T02:56:51.033Z,0
2018-08-13T02:58:12.593Z,0
2018-08-13T02:59:13.857Z,0
2018-08-13T03:00:35.345Z,0
2018-08-13T03:01:36.729Z,0
2018-08-13T03:02:58.201Z,0
2018-08-13T03:03:59.585Z,0
2018-08-13T03:05:21.058Z,0
2018-08-13T03:06:22.441Z,0
2018-08-13T03:07:43.929Z,0
2018-08-13T03:08:45.313Z,0
2018-08-13T03:10:06.785Z,0
2018-08-13T03:11:08.169Z,0
2018-08-13T03:12:29.648Z,0
2018-08-13T03:13:31.033Z,0
2018-08-13T03:14:52.532Z,0
2018-08-13T03:15:53.905Z,0
2018-08-13T03:17:15.393Z,0
2018-08-13T03:18:16.782Z,0
2018-08-13T03:19:38.249Z,0
2018-08-13T03:20:39.633Z,0
2018-08-13T03:22:01.121Z,0
2018-08-13T03:23:02.506Z,0
2018-08-13T03:24:23.977Z,0
2018-08-13T03:25:25.369Z,0
2018-08-13T03:26:46.841Z,0
2018-08-13T03:27:48.225Z,0
2018-08-13T03:29:09.727Z,0
2018-08-13T03:30:11.119Z,0
2018-08-13T03:31:32.578Z,0
2018-08-13T03:32:33.962Z,0
2018-08-13T03:33:55.433Z,0
2018-08-13T03:34:56.817Z,0
2018-08-13T03:36:18.313Z,0
2018-08-13T03:37:19.697Z,0
2018-08-13T03:38:41.169Z,0
2018-08-13T03:39:42.554Z,0
2018-08-13T03:41:04.026Z,0
2018-08-13T03:42:05.409Z,0
2018-08-13T03:43:26.899Z,0
2018-08-13T03:44:28.281Z,0
2018-08-13T03:45:49.754Z,0
2018-08-13T03:46:51.138Z,0
2018-08-13T03:48:12.610Z,0
2018-08-13T03:49:13.994Z,0
2018-08-13T03:50:35.481Z,0
2018-08-13T03:51:36.871Z,0
2018-08-13T03:52:58.337Z,0
2018-08-13T03:53:59.722Z,0
2018-08-13T03:55:21.196Z,0
2018-08-13T03:56:22.586Z,0
2018-08-13T03:57:44.083Z,0
2018-08-13T03:58:45.467Z,0
2018-08-13T04:00:06.938Z,0
2018-08-13T04:01:08.333Z,0
2018-08-13T04:02:29.802Z,0
2018-08-13T04:03:31.186Z,0
2018-08-13T04:04:52.674Z,0
2018-08-13T04:05:54.058Z,0
2018-08-13T04:07:15.534Z,0
2018-08-13T04:08:16.922Z,0
2018-08-13T04:09:38.394Z,4
2018-08-13T04:10:39.778Z,0
2018-08-13T04:12:01.275Z,4
2018-08-13T04:13:02.756Z,4
2018-08-13T04:14:24.099Z,4
2018-08-13T04:15:25.486Z,4
2018-08-13T04:16:46.962Z,4
2018-08-13T04:17:48.350Z,8
2018-08-13T04:19:09.834Z,4
2018-08-13T04:20:11.219Z,4
2018-08-13T04:21:32.691Z,8
2018-08-13T04:22:34.074Z,8
2018-08-13T04:23:55.547Z,8
2018-08-13T04:24:56.938Z,8
2018-08-13T04:26:18.435Z,8
2018-08-13T04:27:19.819Z,12
2018-08-13T04:28:41.291Z,12
2018-08-13T04:29:42.675Z,12
2018-08-13T04:31:04.157Z,16
2018-08-13T04:32:05.542Z,16
2018-08-13T04:33:27.035Z,20
2018-08-13T04:34:28.419Z,20
2018-08-13T04:35:49.891Z,24
2018-08-13T04:36:51.275Z,24
2018-08-13T04:38:12.747Z,20
2018-08-13T04:39:14.139Z,20
2018-08-13T04:40:35.631Z,20
2018-08-13T04:41:37.011Z,24
2018-08-13T04:42:58.491Z,28
2018-08-13T04:43:59.876Z,28
2018-08-13T04:45:21.348Z,28
2018-08-13T04:46:22.740Z,28
2018-08-13T04:47:44.236Z,32
2018-08-13T04:48:45.620Z,36
2018-08-13T04:50:07.093Z,40
2018-08-13T04:51:08.480Z,40
2018-08-13T04:52:29.956Z,40
2018-08-13T04:53:31.343Z,44
2018-08-13T04:54:52.827Z,40
2018-08-13T04:55:54.212Z,40
2018-08-13T04:57:15.692Z,40
2018-08-13T04:58:17.076Z,40
2018-08-13T04:59:38.548Z,44
2018-08-13T05:00:39.940Z,48
2018-08-13T05:02:01.436Z,60
2018-08-13T05:03:02.820Z,68
2018-08-13T05:04:24.292Z,84
2018-08-13T05:05:25.684Z,96
2018-08-13T05:06:47.156Z,112
2018-08-13T05:07:48.548Z,132
2018-08-13T05:09:10.044Z,140
2018-08-13T05:10:11.437Z,140
2018-08-13T05:11:32.916Z,140
2018-08-13T05:12:34.308Z,136
2018-08-13T05:13:55.789Z,124
2018-08-13T05:14:57.183Z,112
2018-08-13T05:16:18.668Z,100
2018-08-13T05:17:20.053Z,104
2018-08-13T05:18:41.532Z,112
2018-08-13T05:19:42.916Z,120
2018-08-13T05:21:04.396Z,124
2018-08-13T05:22:05.789Z,112
2018-08-13T05:23:27.291Z,104
2018-08-13T05:24:28.669Z,100
2018-08-13T05:25:50.140Z,104
2018-08-13T05:26:51.533Z,100
2018-08-13T05:28:13.013Z,88
2018-08-13T05:29:14.397Z,88
2018-08-13T05:30:35.893Z,88
2018-08-13T05:31:37.277Z,92
2018-08-13T05:32:58.749Z,88
2018-08-13T05:34:00.141Z,76
2018-08-13T05:35:21.613Z,88
2018-08-13T05:36:23.005Z,112
2018-08-13T05:37:44.493Z,120
2018-08-13T05:38:45.877Z,76
2018-08-13T05:40:07.357Z,56
2018-08-13T05:41:08.741Z,48
2018-08-13T05:42:30.214Z,56
2018-08-13T05:43:31.606Z,56
2018-08-13T05:44:53.101Z,56
2018-08-13T05:45:54.485Z,52
2018-08-13T05:47:15.957Z,56
2018-08-13T05:48:17.349Z,64
2018-08-13T05:49:38.821Z,76
2018-08-13T05:50:40.214Z,80
2018-08-13T05:52:01.709Z,88
2018-08-13T05:53:03.174Z,84
2018-08-13T05:54:24.533Z,88
2018-08-13T05:55:25.926Z,76
2018-08-13T05:56:47.398Z,52
2018-08-13T05:57:48.790Z,44
2018-08-13T05:59:10.278Z,48
2018-08-13T06:00:11.662Z,52
2018-08-13T06:01:33.133Z,64
2018-08-13T06:02:34.526Z,72
2018-08-13T06:03:56.006Z,76
2018-08-13T06:04:57.391Z,84
2018-08-13T06:06:18.886Z,96
2018-08-13T06:07:20.274Z,92
2018-08-13T06:08:41.742Z,100
2018-08-13T06:09:43.134Z,104
2018-08-13T06:11:04.643Z,112
2018-08-13T06:12:05.998Z,124
2018-08-13T06:13:27.495Z,136
2018-08-13T06:14:28.886Z,144
2018-08-13T06:15:50.366Z,152
2018-08-13T06:16:51.759Z,172
2018-08-13T06:18:13.297Z,196
2018-08-13T06:19:14.591Z,224
2018-08-13T06:20:36.087Z,276
2018-08-13T06:21:37.470Z,304
2018-08-13T06:22:58.946Z,340
2018-08-13T06:24:00.337Z,332
2018-08-13T06:25:21.815Z,312
2018-08-13T06:26:23.207Z,324
2018-08-13T06:27:44.702Z,392
2018-08-13T06:28:46.087Z,508
2018-08-13T06:30:07.604Z,704
2018-08-13T06:31:08.960Z,744
2018-08-13T06:32:30.446Z,736
2018-08-13T06:33:31.831Z,708
2018-08-13T06:34:53.352Z,580
2018-08-13T06:35:54.714Z,532
2018-08-13T06:37:16.238Z,612
2018-08-13T06:38:17.575Z,752
2018-08-13T06:39:39.046Z,856
2018-08-13T06:40:40.439Z,808
2018-08-13T06:42:01.926Z,688
2018-08-13T06:43:03.311Z,664
2018-08-13T06:44:24.783Z,824
2018-08-13T06:45:26.175Z,844
2018-08-13T06:46:47.654Z,808
2018-08-13T06:47:49.047Z,768
2018-08-13T06:49:10.545Z,744
2018-08-13T06:50:11.927Z,804
2018-08-13T06:51:33.399Z,848
2018-08-13T06:52:34.791Z,884
2018-08-13T06:53:56.265Z,904
2018-08-13T06:54:57.655Z,924
2018-08-13T06:56:19.143Z,948
2018-08-13T06:57:20.535Z,964
2018-08-13T06:58:42.007Z,984
2018-08-13T06:59:43.399Z,1012
2018-08-13T07:01:04.880Z,1032
2018-08-13T07:02:06.272Z,1040
2018-08-13T07:03:27.775Z,1044
2018-08-13T07:04:29.167Z,1048
2018-08-13T07:05:50.655Z,1044
2018-08-13T07:06:52.047Z,1036
2018-08-13T07:08:13.527Z,1024
2018-08-13T07:09:14.919Z,1012
2018-08-13T07:10:36.416Z,972
2018-08-13T07:11:37.800Z,936
2018-08-13T07:12:59.272Z,900
2018-08-13T07:14:00.666Z,884
2018-08-13T07:15:22.144Z,840
2018-08-13T07:16:23.536Z,816
2018-08-13T07:17:45.024Z,816
2018-08-13T07:18:46.408Z,800
2018-08-13T07:20:07.888Z,780
2018-08-13T07:21:09.272Z,820
2018-08-13T07:22:30.805Z,800
2018-08-13T07:23:32.144Z,872
2018-08-13T07:24:53.648Z,956
2018-08-13T07:25:55.056Z,956
2018-08-13T07:27:16.536Z,936
2018-08-13T07:28:17.929Z,912
2018-08-13T07:29:39.409Z,964
2018-08-13T07:30:40.800Z,988
2018-08-13T07:32:02.290Z,1020
2018-08-13T07:33:03.680Z,1032
2018-08-13T07:34:25.160Z,1040
2018-08-13T07:35:26.552Z,1028
2018-08-13T07:36:48.032Z,1012
2018-08-13T07:37:49.427Z,1004
2018-08-13T07:39:10.953Z,1008
2018-08-13T07:40:12.323Z,1028
2018-08-13T07:41:33.792Z,1048
2018-08-13T07:42:35.184Z,1068
2018-08-13T07:43:56.664Z,1084
2018-08-13T07:44:58.056Z,1076
2018-08-13T07:46:19.548Z,1052
2018-08-13T07:47:20.936Z,1024
2018-08-13T07:48:42.416Z,1012
2018-08-13T07:49:43.863Z,996
2018-08-13T07:51:05.280Z,1016
2018-08-13T07:52:06.672Z,1048
2018-08-13T07:53:28.168Z,1024
2018-08-13T07:54:29.560Z,1020
2018-08-13T07:55:51.040Z,976
2018-08-13T07:56:52.432Z,924
2018-08-13T07:58:13.913Z,860
2018-08-13T07:59:15.304Z,876
2018-08-13T08:00:36.800Z,968
2018-08-13T08:01:38.187Z,1048
2018-08-13T08:02:59.665Z,1136
2018-08-13T08:04:01.057Z,1176
2018-08-13T08:05:22.537Z,1124
2018-08-13T08:06:23.928Z,1120
2018-08-13T08:07:45.478Z,1140
2018-08-13T08:08:46.865Z,1168
2018-08-13T08:10:08.345Z,1256
2018-08-13T08:11:09.737Z,1260
2018-08-13T08:12:31.208Z,1272
2018-08-13T08:13:32.601Z,1288
2018-08-13T08:14:54.089Z,1276
2018-08-13T08:15:55.481Z,1248
2018-08-13T08:17:16.965Z,1208
2018-08-13T08:18:18.357Z,1140
2018-08-13T08:19:39.825Z,1144
2018-08-13T08:20:41.217Z,1176
2018-08-13T08:22:02.717Z,1208
2018-08-13T08:23:04.107Z,1224
2018-08-13T08:24:25.578Z,1056
2018-08-13T08:25:26.969Z,972
2018-08-13T08:26:48.449Z,1028
2018-08-13T08:27:49.845Z,1032
2018-08-13T08:29:11.367Z,1072
2018-08-13T08:30:12.732Z,888
2018-08-13T08:31:34.210Z,636
2018-08-13T08:32:35.601Z,640
2018-08-13T08:33:57.074Z,536
2018-08-13T08:34:58.466Z,604
2018-08-13T08:36:19.962Z,516
2018-08-13T08:37:21.356Z,412
2018-08-13T08:38:42.833Z,444
2018-08-13T08:39:44.226Z,560
2018-08-13T08:41:05.706Z,568
2018-08-13T08:42:07.098Z,528
2018-08-13T08:43:28.605Z,540
2018-08-13T08:44:29.994Z,640
2018-08-13T08:45:51.528Z,508
2018-08-13T08:46:52.867Z,344
2018-08-13T08:48:14.338Z,256
2018-08-13T08:49:15.730Z,272
2018-08-13T08:50:37.314Z,440
2018-08-13T08:51:38.706Z,632
2018-08-13T08:53:00.186Z,1024
2018-08-13T08:54:01.579Z,1004
2018-08-13T08:55:23.058Z,1148
2018-08-13T08:56:24.450Z,1056
2018-08-13T08:57:45.946Z,692
2018-08-13T08:58:47.338Z,612
2018-08-13T09:00:08.818Z,636
2018-08-13T09:01:10.210Z,636
2018-08-13T09:02:31.691Z,544
2018-08-13T09:03:33.084Z,500
2018-08-13T09:04:54.578Z,432
2018-08-13T09:05:56.033Z,440
2018-08-13T09:07:17.403Z,552
2018-08-13T09:08:18.797Z,644
2018-08-13T09:09:40.274Z,692
2018-08-13T09:10:41.667Z,600
2018-08-13T09:12:03.163Z,704
2018-08-13T09:13:04.557Z,716
2018-08-13T09:14:26.029Z,636
2018-08-13T09:15:27.418Z,708
2018-08-13T09:16:48.899Z,920
2018-08-13T09:17:50.291Z,896
2018-08-13T09:19:11.841Z,1160
2018-08-13T09:20:13.155Z,1020
2018-08-13T09:21:34.638Z,840
2018-08-13T09:22:36.027Z,616
2018-08-13T09:23:57.502Z,648
2018-08-13T09:24:58.891Z,524
2018-08-13T09:26:20.379Z,572
2018-08-13T09:27:21.763Z,760
2018-08-13T09:28:43.244Z,996
2018-08-13T09:29:44.636Z,1052
2018-08-13T09:31:06.116Z,1320
2018-08-13T09:32:07.525Z,1580
2018-08-13T09:33:29.003Z,1540
2018-08-13T09:34:30.396Z,1476
2018-08-13T09:35:51.880Z,980
2018-08-13T09:36:53.267Z,752
2018-08-13T09:38:14.748Z,900
2018-08-13T09:39:16.142Z,1124
2018-08-13T09:40:37.636Z,1184
2018-08-13T09:41:39.029Z,1080
2018-08-13T09:43:00.507Z,1108
2018-08-13T09:44:01.903Z,1052
2018-08-13T09:45:23.374Z,920
2018-08-13T09:46:24.763Z,920
2018-08-13T09:47:46.500Z,932
2018-08-13T09:48:47.892Z,640
2018-08-13T09:50:09.367Z,592
2018-08-13T09:51:10.756Z,680
2018-08-13T09:52:32.228Z,996
2018-08-13T09:53:33.619Z,1096
2018-08-13T09:54:55.236Z,1268
2018-08-13T09:55:56.627Z,1292
2018-08-13T09:57:18.107Z,1512
2018-08-13T09:58:19.500Z,1672
2018-08-13T09:59:40.988Z,1680
2018-08-13T10:00:42.380Z,1588
2018-08-13T10:02:03.884Z,1980
2018-08-13T10:03:05.276Z,2000
2018-08-13T10:04:26.756Z,2008
2018-08-13T10:05:28.148Z,2164
2018-08-13T10:06:49.636Z,1812
2018-08-13T10:07:51.028Z,1280
2018-08-13T10:09:12.549Z,908
2018-08-13T10:10:13.908Z,952
2018-08-13T10:11:36.285Z,820
2018-08-13T10:12:37.676Z,800
2018-08-13T10:13:59.156Z,1024
2018-08-13T10:15:00.548Z,924
2018-08-13T10:16:22.045Z,1052
2018-08-13T10:17:23.464Z,1100
2018-08-13T10:18:44.917Z,1168
2018-08-13T10:19:46.309Z,1244
2018-08-13T10:21:07.791Z,1392
2018-08-13T10:22:09.183Z,1260
2018-08-13T10:23:30.689Z,1172
2018-08-13T10:24:32.077Z,1200
2018-08-13T10:25:53.564Z,1284
2018-08-13T10:26:54.956Z,1452
2018-08-13T10:28:16.436Z,1468
2018-08-13T10:29:17.829Z,1396
2018-08-13T10:30:39.325Z,1300
2018-08-13T10:31:40.717Z,1204
2018-08-13T10:33:02.205Z,1248
2018-08-13T10:34:03.597Z,1192
2018-08-13T10:35:25.077Z,1392
2018-08-13T10:36:26.477Z,1472
2018-08-13T10:37:47.981Z,1460
2018-08-13T10:38:49.373Z,1452
2018-08-13T10:40:10.861Z,1276
2018-08-13T10:41:12.261Z,1036
2018-08-13T10:42:33.733Z,928
2018-08-13T10:43:35.201Z,1048
2018-08-13T10:44:56.674Z,1112
2018-08-13T10:45:58.013Z,1136
2018-08-13T10:47:19.501Z,1248
2018-08-13T10:48:20.893Z,1348
2018-08-13T10:49:42.433Z,1412
2018-08-13T10:50:43.766Z,1576
2018-08-13T10:52:05.262Z,1832
2018-08-13T10:53:06.653Z,1980
2018-08-13T10:54:28.134Z,1928
2018-08-13T10:55:29.525Z,1916
2018-08-13T10:56:51.018Z,2064
2018-08-13T10:57:52.398Z,2192
2018-08-13T10:59:13.894Z,2164
2018-08-13T11:00:15.285Z,2132
2018-08-13T11:01:36.773Z,1988
2018-08-13T11:02:38.168Z,2044
2018-08-13T11:03:59.645Z,2092
2018-08-13T11:05:01.038Z,1916
2018-08-13T11:06:22.534Z,2092
2018-08-13T11:07:23.926Z,2012
2018-08-13T11:08:45.406Z,1276
2018-08-13T11:09:46.798Z,1184
2018-08-13T11:11:08.286Z,1316
2018-08-13T11:12:09.678Z,1296
2018-08-13T11:13:31.224Z,912
2018-08-13T11:14:32.526Z,904
2018-08-13T11:15:54.006Z,1200
2018-08-13T11:16:55.398Z,1452
2018-08-13T11:18:16.886Z,1804
2018-08-13T11:19:18.286Z,1876
2018-08-13T11:20:39.790Z,1868
2018-08-13T11:21:41.239Z,1708
2018-08-13T11:23:02.680Z,500
2018-08-13T11:24:04.074Z,96
2018-08-13T11:25:25.599Z,104
2018-08-13T11:26:26.942Z,100
2018-08-13T11:27:48.447Z,1480
2018-08-13T11:28:49.846Z,1584
2018-08-13T11:30:11.327Z,1396
2018-08-13T11:31:12.745Z,1568
2018-08-13T11:32:34.207Z,1376
2018-08-13T11:33:35.598Z,1056
2018-08-13T11:34:57.188Z,1084
2018-08-13T11:35:58.486Z,996
2018-08-13T11:37:19.966Z,976
2018-08-13T11:38:21.367Z,948
2018-08-13T11:39:42.846Z,956
2018-08-13T11:40:44.368Z,968
2018-08-13T11:42:05.703Z,1160
2018-08-13T11:43:07.102Z,1344
2018-08-13T11:44:28.583Z,1500
2018-08-13T11:45:29.983Z,1340
2018-08-13T11:46:51.471Z,1180
2018-08-13T11:47:52.863Z,1288
2018-08-13T11:49:14.358Z,1092
2018-08-13T11:50:15.753Z,1088
2018-08-13T11:51:37.239Z,1620
2018-08-13T11:52:38.639Z,1520
2018-08-13T11:54:00.127Z,1540
2018-08-13T11:55:01.551Z,1704
2018-08-13T11:56:23.105Z,1836
2018-08-13T11:57:24.439Z,2076
2018-08-13T11:58:45.927Z,1932
2018-08-13T11:59:47.327Z,1856
2018-08-13T12:01:08.888Z,1600
2018-08-13T12:02:10.274Z,1600
2018-08-13T12:03:31.704Z,1492
2018-08-13T12:04:33.095Z,1028
2018-08-13T12:05:54.575Z,416
2018-08-13T12:06:55.968Z,256
2018-08-13T12:08:17.458Z,320
2018-08-13T12:09:18.839Z,384
2018-08-13T12:10:40.328Z,316
2018-08-13T12:11:41.720Z,288
2018-08-13T12:13:03.192Z,236
2018-08-13T12:14:04.670Z,184
2018-08-13T12:15:26.032Z,128
2018-08-13T12:16:27.424Z,116
2018-08-13T12:17:48.922Z,128
2018-08-13T12:18:50.312Z,132
2018-08-13T12:20:11.808Z,168
2018-08-13T12:21:13.195Z,224
2018-08-13T12:22:34.672Z,296
2018-08-13T12:23:36.066Z,356
2018-08-13T12:24:57.552Z,428
2018-08-13T12:25:58.944Z,480
2018-08-13T12:27:20.425Z,584
2018-08-13T12:28:21.816Z,696
2018-08-13T12:29:43.290Z,876
2018-08-13T12:30:44.681Z,1008
2018-08-13T12:32:06.170Z,1132
2018-08-13T12:33:07.562Z,1220
2018-08-13T12:34:29.048Z,1368
2018-08-13T12:35:30.444Z,1488
2018-08-13T12:36:51.928Z,1580
2018-08-13T12:37:53.321Z,1532
2018-08-13T12:39:14.825Z,1444
2018-08-13T12:40:16.216Z,1396
2018-08-13T12:41:37.706Z,1444
2018-08-13T12:42:39.097Z,1564
2018-08-13T12:44:00.577Z,1644
2018-08-13T12:45:01.972Z,1728
2018-08-13T12:46:23.465Z,2200
2018-08-13T12:47:24.857Z,2276
2018-08-13T12:48:46.337Z,1944
2018-08-13T12:49:47.737Z,1940
2018-08-13T12:51:09.254Z,1544
2018-08-13T12:52:10.617Z,1508
2018-08-13T12:53:32.114Z,1916
2018-08-13T12:54:33.505Z,2148
2018-08-13T12:55:54.985Z,2248
2018-08-13T12:56:56.377Z,1860
2018-08-13T12:58:17.865Z,1872
2018-08-13T12:59:19.265Z,1316
2018-08-13T13:00:40.793Z,1316
2018-08-13T13:01:42.186Z,1208
2018-08-13T13:03:03.665Z,1196
2018-08-13T13:04:05.066Z,1300
2018-08-13T13:05:26.545Z,1664
2018-08-13T13:06:27.945Z,1720
2018-08-13T13:07:49.449Z,1712
2018-08-13T13:08:50.891Z,1412
2018-08-13T13:10:12.330Z,1468
2018-08-13T13:11:13.722Z,1384
2018-08-13T13:12:35.210Z,1196
2018-08-13T13:13:36.593Z,1800
2018-08-13T13:14:58.089Z,2004
2018-08-13T13:15:59.482Z,2148
2018-08-13T13:17:20.961Z,1660
2018-08-13T13:18:22.363Z,1616
2018-08-13T13:19:43.850Z,2308
2018-08-13T13:20:45.242Z,1628
2018-08-13T13:22:06.739Z,1276
2018-08-13T13:23:08.129Z,1256
2018-08-13T13:24:29.625Z,1424
2018-08-13T13:25:31.018Z,1948
2018-08-13T13:26:52.506Z,1072
2018-08-13T13:27:53.898Z,916
2018-08-13T13:29:15.545Z,688
2018-08-13T13:30:16.938Z,1016
2018-08-13T13:31:38.426Z,1396
2018-08-13T13:32:39.818Z,980
2018-08-13T13:34:01.306Z,984
2018-08-13T13:35:02.690Z,1192
2018-08-13T13:36:24.177Z,1176
2018-08-13T13:37:25.570Z,1152
2018-08-13T13:38:47.058Z,1784
2018-08-13T13:39:48.449Z,1420
2018-08-13T13:41:09.930Z,1968
2018-08-13T13:42:11.329Z,1444
2018-08-13T13:43:32.825Z,1016
2018-08-13T13:44:34.220Z,1184
2018-08-13T13:45:55.706Z,1208
2018-08-13T13:46:57.098Z,1224
2018-08-13T13:48:18.578Z,1320
2018-08-13T13:49:19.970Z,1408
2018-08-13T13:50:41.466Z,1036
2018-08-13T13:51:42.872Z,768
2018-08-13T13:53:04.338Z,664
2018-08-13T13:54:05.730Z,536
2018-08-13T13:55:27.210Z,352
2018-08-13T13:56:28.602Z,220
2018-08-13T13:57:50.098Z,132
2018-08-13T13:58:51.491Z,116
2018-08-13T14:00:12.970Z,168
2018-08-13T14:01:14.362Z,172
2018-08-13T14:02:35.842Z,172
2018-08-13T14:03:37.234Z,156
2018-08-13T14:04:58.730Z,112
2018-08-13T14:06:00.122Z,112
2018-08-13T14:07:21.603Z,180
2018-08-13T14:08:22.994Z,224
2018-08-13T14:09:44.475Z,244
2018-08-13T14:10:45.867Z,280
2018-08-13T14:12:07.355Z,328
2018-08-13T14:13:08.746Z,376
2018-08-13T14:14:30.254Z,416
2018-08-13T14:15:31.626Z,492
2018-08-13T14:16:53.107Z,656
2018-08-13T14:17:54.499Z,780
2018-08-13T14:19:15.987Z,828
2018-08-13T14:20:17.379Z,776
2018-08-13T14:21:38.851Z,752
2018-08-13T14:22:40.243Z,804
2018-08-13T14:24:01.723Z,796
2018-08-13T14:25:03.117Z,772
2018-08-13T14:26:24.611Z,772
2018-08-13T14:27:26.003Z,804
2018-08-13T14:28:47.485Z,944
2018-08-13T14:29:48.875Z,1104
2018-08-13T14:31:10.355Z,1060
2018-08-13T14:32:11.827Z,1276
2018-08-13T14:33:33.323Z,1668
2018-08-13T14:34:34.751Z,1728
2018-08-13T14:35:56.203Z,1600
2018-08-13T14:36:57.595Z,1312
2018-08-13T14:38:19.075Z,1076
2018-08-13T14:39:20.468Z,1012
2018-08-13T14:40:42.108Z,968
2018-08-13T14:41:43.504Z,1000
2018-08-13T14:43:04.980Z,1224
2018-08-13T14:44:06.372Z,1436
2018-08-13T14:45:27.852Z,1796
2018-08-13T14:46:29.243Z,1904
2018-08-13T14:47:50.741Z,1720
2018-08-13T14:48:52.132Z,1400
2018-08-13T14:50:13.612Z,1364
2018-08-13T14:51:15.036Z,1420
2018-08-13T14:52:36.496Z,1228
2018-08-13T14:53:37.884Z,1260
2018-08-13T14:54:59.380Z,1384
2018-08-13T14:56:00.773Z,1548
2018-08-13T14:57:22.260Z,1416
2018-08-13T14:58:23.652Z,1412
2018-08-13T14:59:45.131Z,1468
2018-08-13T15:00:46.526Z,1444
2018-08-13T15:02:08.020Z,1224
2018-08-13T15:03:09.411Z,1224
2018-08-13T15:04:30.894Z,1136
2018-08-13T15:05:32.308Z,1148
2018-08-13T15:06:53.764Z,1248
2018-08-13T15:07:55.156Z,1328
2018-08-13T15:09:16.660Z,1308
2018-08-13T15:10:18.055Z,1252
2018-08-13T15:11:39.533Z,1336
2018-08-13T15:12:40.932Z,1340
2018-08-13T15:14:02.404Z,1364
2018-08-13T15:15:03.796Z,1376
2018-08-13T15:16:25.292Z,1488
2018-08-13T15:17:26.685Z,1328
2018-08-13T15:18:48.164Z,1060
2018-08-13T15:19:49.557Z,808
2018-08-13T15:21:11.037Z,512
2018-08-13T15:22:12.435Z,392
2018-08-13T15:23:33.916Z,340
2018-08-13T15:24:35.307Z,380
2018-08-13T15:25:56.772Z,436
2018-08-13T15:26:58.164Z,440
2018-08-13T15:28:19.653Z,452
2018-08-13T15:29:21.045Z,484
2018-08-13T15:30:42.541Z,588
2018-08-13T15:31:43.933Z,736
2018-08-13T15:33:05.413Z,1032
2018-08-13T15:34:06.805Z,1232
2018-08-13T15:35:28.285Z,1372
2018-08-13T15:36:29.685Z,1436
2018-08-13T15:37:51.173Z,1512
2018-08-13T15:38:52.565Z,1548
2018-08-13T15:40:14.046Z,1548
2018-08-13T15:41:15.449Z,1696
2018-08-13T15:42:36.925Z,1620
2018-08-13T15:43:38.326Z,1528
2018-08-13T15:44:59.821Z,1516
2018-08-13T15:46:01.225Z,1568
2018-08-13T15:47:22.702Z,1536
2018-08-13T15:48:24.101Z,1488
2018-08-13T15:49:45.582Z,1412
2018-08-13T15:50:46.974Z,1424
2018-08-13T15:52:08.469Z,1472
2018-08-13T15:53:09.861Z,1436
2018-08-13T15:54:31.350Z,1308
2018-08-13T15:55:32.746Z,1496
2018-08-13T15:56:54.221Z,1744
2018-08-13T15:57:55.614Z,1420
2018-08-13T15:59:17.237Z,956
2018-08-13T16:00:18.629Z,980
2018-08-13T16:01:40.144Z,900
2018-08-13T16:02:41.503Z,968
2018-08-13T16:04:02.982Z,996
2018-08-13T16:05:04.374Z,1056
2018-08-13T16:06:25.870Z,1076
2018-08-13T16:07:27.261Z,1060
2018-08-13T16:08:48.742Z,1140
2018-08-13T16:09:50.133Z,1332
2018-08-13T16:11:11.622Z,1436
2018-08-13T16:12:13.006Z,1516
2018-08-13T16:13:34.502Z,1392
2018-08-13T16:14:35.894Z,1272
2018-08-13T16:15:57.382Z,1148
2018-08-13T16:16:58.774Z,1104
2018-08-13T16:18:20.254Z,1188
2018-08-13T16:19:21.726Z,1072
2018-08-13T16:20:43.222Z,816
2018-08-13T16:21:44.614Z,832
2018-08-13T16:23:06.094Z,944
2018-08-13T16:24:07.486Z,1024
2018-08-13T16:25:28.966Z,908
2018-08-13T16:26:30.361Z,864
2018-08-13T16:27:51.846Z,1092
2018-08-13T16:28:53.238Z,1020
2018-08-13T16:30:14.710Z,1104
2018-08-13T16:31:16.102Z,1144
2018-08-13T16:32:37.583Z,1012